Time;durP1;ratioP1;P1;durP2;ratioP2;P2;SDS_P1;SDS_P2;PMS_P1;PMS_P2;Temp;Humidity;BMP_temperature;BMP_pressure;BME280_temperature;BME280_humidity;BME280_pressure;Samples;Min_cycle;Max_cycle;Signal;HPM_P1;HPM_P2
2021/08/17 00:01:22;;;;;;;17.82;13.43;;;;;;;22.70;62.53;99333.18;1643099;86;21512;-77
2021/08/17 00:03:51;;;;;;;19.45;14.80;;;;;;;22.66;62.63;99333.06;1596028;90;21008;-76
2021/08/17 00:06:17;;;;;;;18.85;13.62;;;;;;;22.61;62.97;99330.53;1641425;87;21451;-77
2021/08/17 00:08:45;;;;;;;16.70;13.68;;;;;;;22.57;62.91;99333.16;1596004;88;21835;-77
2021/08/17 00:11:13;;;;;;;20.75;14.00;;;;;;;22.56;63.10;99334.86;1641465;87;21579;-77
2021/08/17 00:13:43;;;;;;;22.27;14.95;;;;;;;22.54;63.19;99339.89;1596095;90;21111;-78
2021/08/17 00:16:10;;;;;;;16.80;14.25;;;;;;;22.51;63.26;99333.13;1641426;87;20982;-77
2021/08/17 00:18:38;;;;;;;19.27;14.95;;;;;;;22.49;63.35;99333.25;1596221;88;21080;-78
2021/08/17 00:21:06;;;;;;;20.23;15.45;;;;;;;22.47;63.36;99335.52;1647254;87;21601;-76
2021/08/17 00:23:34;;;;;;;20.55;14.23;;;;;;;22.44;63.36;99336.20;1647082;87;20964;-78
2021/08/17 00:26:02;;;;;;;19.65;14.63;;;;;;;22.44;63.49;99335.63;1637545;87;20973;-75
2021/08/17 00:28:30;;;;;;;19.75;14.05;;;;;;;22.46;63.27;99333.34;1642982;85;21566;-76
2021/08/17 00:30:58;;;;;;;20.23;14.75;;;;;;;22.46;63.23;99334.70;1643695;87;21114;-76
2021/08/17 00:33:25;;;;;;;16.75;13.40;;;;;;;22.45;63.32;99334.47;1644078;87;21550;-77
2021/08/17 00:35:53;;;;;;;19.10;15.38;;;;;;;22.44;63.38;99331.52;1654771;86;20989;-74
2021/08/17 00:38:20;;;;;;;19.70;14.00;;;;;;;22.40;63.52;99327.83;1656393;86;21014;-74
2021/08/17 00:40:47;;;;;;;25.50;16.57;;;;;;;22.37;63.69;99330.45;1595951;90;21083;-73
2021/08/17 00:43:15;;;;;;;20.80;14.78;;;;;;;22.32;63.80;99332.02;1647279;87;21596;-74
2021/08/17 00:45:43;;;;;;;22.15;15.43;;;;;;;22.31;63.94;99329.05;1647278;87;21181;-74
2021/08/17 00:48:11;;;;;;;18.15;13.60;;;;;;;22.29;64.03;99328.03;1614812;87;21109;-72
2021/08/17 00:50:39;;;;;;;19.00;13.95;;;;;;;22.29;64.04;99334.88;1639765;87;21019;-75
2021/08/17 00:53:05;;;;;;;23.40;13.98;;;;;;;22.29;64.15;99328.59;1615153;87;21036;-77
2021/08/17 00:55:32;;;;;;;18.77;15.18;;;;;;;22.25;64.36;99338.06;1644516;85;21532;-77
2021/08/17 00:58:00;;;;;;;19.00;13.30;;;;;;;22.17;64.49;99332.88;1659396;85;21375;-76
2021/08/17 01:00:26;;;;;;;25.82;15.83;;;;;;;22.13;64.64;99330.58;1644516;85;21075;-73
2021/08/17 01:02:52;;;;;;;21.07;13.90;;;;;;;22.09;64.83;99335.12;1623076;87;21018;-69
2021/08/17 01:05:24;;;;;;;27.02;16.32;;;;;;;22.07;64.94;99331.91;1645300;87;21002;-74
2021/08/17 01:07:50;;;;;;;22.62;16.30;;;;;;;22.06;64.97;99327.56;1645399;87;21018;-78
2021/08/17 01:10:17;;;;;;;20.20;16.30;;;;;;;22.00;65.38;99322.63;1668109;85;21227;-80
2021/08/17 01:12:44;;;;;;;19.60;15.15;;;;;;;21.96;65.58;99333.47;1668395;84;21021;-81
2021/08/17 01:15:12;;;;;;;21.05;15.10;;;;;;;21.92;65.81;99335.20;1645722;85;21506;-83
2021/08/17 01:17:41;;;;;;;20.37;15.85;;;;;;;21.91;65.80;99326.78;1646711;87;21006;-77
2021/08/17 01:20:16;;;;;;;20.23;15.23;;;;;;;21.90;65.86;99329.28;1645418;87;21496;-76
2021/08/17 01:22:44;;;;;;;23.73;16.73;;;;;;;21.84;66.12;99326.50;1645553;87;21030;-76
2021/08/17 01:25:11;;;;;;;18.82;14.95;;;;;;;21.83;66.18;99334.47;1622123;87;21034;-75
2021/08/17 01:27:38;;;;;;;20.70;15.98;;;;;;;21.82;66.31;99332.89;1623373;87;21002;-76
2021/08/17 01:30:06;;;;;;;21.27;15.15;;;;;;;21.82;66.43;99337.00;1649500;86;20942;-78
2021/08/17 01:32:32;;;;;;;20.52;16.07;;;;;;;21.80;66.38;99331.04;1645107;85;20959;-78
2021/08/17 01:34:58;;;;;;;23.27;16.05;;;;;;;21.75;66.69;99338.88;1641305;86;21047;-77
2021/08/17 01:37:25;;;;;;;19.90;14.80;;;;;;;21.79;66.32;99340.95;1618857;87;21030;-75
2021/08/17 01:40:01;;;;;;;19.98;14.80;;;;;;;21.78;66.40;99344.25;1611000;87;21177;-77
2021/08/17 01:42:29;;;;;;;26.05;15.58;;;;;;;21.80;66.44;99349.40;1594755;88;21072;-81
2021/08/17 01:44:58;;;;;;;24.07;16.93;;;;;;;21.80;66.65;99347.47;1595312;88;21012;-79
2021/08/17 01:47:30;;;;;;;21.30;17.07;;;;;;;21.78;66.72;99346.98;1614679;86;21072;-80
2021/08/17 01:50:01;;;;;;;20.32;16.57;;;;;;;21.76;66.79;99342.42;1655321;86;28130;-79
2021/08/17 01:52:29;;;;;;;22.77;16.57;;;;;;;21.75;66.84;99340.81;1649211;87;21007;-79
2021/08/17 01:54:56;;;;;;;27.98;15.93;;;;;;;21.73;66.88;99340.33;1649311;87;20966;-80
2021/08/17 01:57:22;;;;;;;18.57;16.00;;;;;;;21.76;66.38;99343.80;1643424;87;20939;-78
2021/08/17 01:59:50;;;;;;;21.60;16.15;;;;;;;21.74;66.48;99335.91;1644493;87;21511;-79
2021/08/17 02:02:17;;;;;;;21.50;15.58;;;;;;;21.72;66.79;99338.19;1644514;84;21100;-76
2021/08/17 02:04:43;;;;;;;22.40;15.83;;;;;;;21.70;66.81;99332.80;1618407;86;20925;-78
2021/08/17 02:07:09;;;;;;;18.60;15.70;;;;;;;21.69;66.93;99330.63;1617023;88;21116;-80
2021/08/17 02:09:36;;;;;;;25.10;17.57;;;;;;;21.70;67.05;99328.69;1617294;85;21068;-80
2021/08/17 02:12:04;;;;;;;22.80;17.37;;;;;;;21.68;67.13;99324.91;1617560;86;20866;-82
2021/08/17 02:14:31;;;;;;;22.30;16.27;;;;;;;21.71;66.95;99332.47;1617472;85;21097;-80
2021/08/17 02:16:59;;;;;;;20.23;15.23;;;;;;;21.71;66.85;99326.20;1608498;85;20979;-85
2021/08/17 02:19:25;;;;;;;19.05;14.90;;;;;;;21.70;66.87;99330.86;1594208;86;20968;-86
2021/08/17 02:21:53;;;;;;;20.43;15.70;;;;;;;21.71;66.92;99322.09;1591074;86;20894;-83
2021/08/17 02:24:19;;;;;;;22.10;15.30;;;;;;;21.72;66.92;99320.40;1589158;88;21059;-83
2021/08/17 02:26:46;;;;;;;19.60;15.98;;;;;;;21.75;66.87;99321.66;1617943;88;21000;-83
2021/08/17 02:29:13;;;;;;;20.17;16.25;;;;;;;21.78;66.76;99320.17;1618063;88;20952;-83
2021/08/17 02:31:39;;;;;;;20.68;16.17;;;;;;;21.79;66.66;99320.41;1635791;85;21000;-83
2021/08/17 02:34:06;;;;;;;23.80;16.60;;;;;;;21.73;66.93;99317.06;1624201;86;21029;-83
2021/08/17 02:36:32;;;;;;;23.65;15.75;;;;;;;21.66;67.16;99321.72;1611518;87;21014;-82
2021/08/17 02:38:59;;;;;;;21.75;17.98;;;;;;;21.60;67.34;99318.93;1604233;89;21030;-83
2021/08/17 02:41:25;;;;;;;26.60;16.97;;;;;;;21.57;67.53;99320.17;1610742;89;20978;-81
2021/08/17 02:43:52;;;;;;;27.58;17.20;;;;;;;21.53;67.61;99320.59;1603003;89;21080;-82
2021/08/17 02:46:22;;;;;;;24.37;16.35;;;;;;;21.59;67.17;99326.09;1611134;87;20970;-84
2021/08/17 02:48:49;;;;;;;17.25;15.23;;;;;;;21.62;67.18;99317.23;1610298;89;21543;-84
2021/08/17 02:51:16;;;;;;;20.32;15.38;;;;;;;21.61;67.12;99320.54;1609100;89;21029;-83
2021/08/17 02:53:44;;;;;;;18.98;15.13;;;;;;;21.63;67.16;99315.52;1623198;87;21513;-82
2021/08/17 02:56:12;;;;;;;25.65;16.27;;;;;;;21.66;67.06;99319.55;1619722;87;21054;-83
2021/08/17 02:58:40;;;;;;;21.60;15.13;;;;;;;21.66;66.96;99314.87;1609142;89;20975;-83
2021/08/17 03:01:07;;;;;;;21.90;15.35;;;;;;;21.68;66.99;99315.89;1622817;86;21554;-87
2021/08/17 03:03:33;;;;;;;19.62;15.13;;;;;;;21.69;66.91;99312.02;1603808;87;21012;-86
2021/08/17 03:06:01;;;;;;;20.82;15.55;;;;;;;21.67;66.92;99306.09;1595457;88;21630;-86
2021/08/17 03:08:28;;;;;;;17.90;13.53;;;;;;;21.67;66.96;99308.84;1609223;87;21032;-84
2021/08/17 03:10:55;;;;;;;21.97;16.30;;;;;;;21.69;66.93;99312.83;1593389;89;21090;-87
2021/08/17 03:13:23;;;;;;;19.60;15.65;;;;;;;21.69;66.93;99314.77;1613160;88;20974;-81
2021/08/17 03:15:49;;;;;;;18.32;15.45;;;;;;;21.72;66.93;99307.27;1634081;86;21074;-81
2021/08/17 03:18:17;;;;;;;18.82;15.30;;;;;;;21.76;66.76;99319.16;1612974;87;21109;-80
2021/08/17 03:20:45;;;;;;;21.77;15.13;;;;;;;21.77;66.69;99310.38;1607538;87;21545;-76
2021/08/17 03:23:14;;;;;;;19.55;14.85;;;;;;;21.79;66.62;99313.00;1628016;87;21050;-76
2021/08/17 03:25:41;;;;;;;20.97;15.40;;;;;;;21.83;66.53;99312.56;1620924;88;22005;-76
2021/08/17 03:28:08;;;;;;;24.10;16.40;;;;;;;21.90;66.33;99303.27;1593353;88;20982;-76
2021/08/17 03:30:35;;;;;;;22.50;15.20;;;;;;;21.95;66.05;99308.58;1620789;88;21560;-78
2021/08/17 03:33:03;;;;;;;20.25;14.43;;;;;;;21.99;65.98;99311.44;1617963;88;20991;-80
2021/08/17 03:35:30;;;;;;;22.40;15.08;;;;;;;22.00;65.75;99307.57;1559735;90;21117;-84
2021/08/17 03:37:57;;;;;;;23.98;14.58;;;;;;;22.01;65.78;99300.97;1587193;90;21268;-78
2021/08/17 03:40:23;;;;;;;17.30;13.90;;;;;;;22.02;65.68;99300.61;1588060;88;21118;-80
2021/08/17 03:42:50;;;;;;;21.35;14.43;;;;;;;22.06;65.57;99302.13;1592977;88;21593;-80
2021/08/17 03:45:19;;;;;;;17.87;14.65;;;;;;;22.04;65.55;99299.72;1587129;90;21083;-77
2021/08/17 03:47:46;;;;;;;18.10;14.85;;;;;;;22.04;65.56;99299.72;1613933;89;21124;-78
2021/08/17 03:50:13;;;;;;;20.45;13.60;;;;;;;22.10;65.41;99299.76;1613926;89;21051;-79
2021/08/17 03:52:40;;;;;;;22.50;13.43;;;;;;;22.12;65.34;99296.09;1617272;87;21606;-77
2021/08/17 03:55:08;;;;;;;15.15;13.38;;;;;;;22.18;65.13;99303.55;1643032;87;21122;-77
2021/08/17 03:57:35;;;;;;;21.77;13.83;;;;;;;22.16;65.13;99304.44;1617262;88;21070;-78
2021/08/17 04:00:05;;;;;;;22.95;15.35;;;;;;;22.17;65.13;99306.84;1587700;89;21617;-79
2021/08/17 04:02:34;;;;;;;22.10;13.40;;;;;;;22.18;64.99;99305.72;1587517;88;21121;-80
2021/08/17 04:05:00;;;;;;;23.27;15.53;;;;;;;22.22;64.87;99308.58;1559125;90;21111;-78
2021/08/17 04:07:27;;;;;;;21.65;13.95;;;;;;;22.15;65.04;99298.75;1587857;90;21583;-83
2021/08/17 04:09:57;;;;;;;17.37;14.68;;;;;;;22.12;65.23;99300.77;1588305;90;20979;-83
2021/08/17 04:12:24;;;;;;;18.98;11.83;;;;;;;22.12;65.32;99305.69;1615773;88;21560;-82
2021/08/17 04:14:52;;;;;;;20.68;13.88;;;;;;;22.21;65.25;99306.97;1588509;90;21571;-82
2021/08/17 04:17:21;;;;;;;19.27;13.78;;;;;;;22.26;65.06;99298.55;1587609;90;21014;-83
2021/08/17 04:19:48;;;;;;;19.73;13.95;;;;;;;22.32;64.95;99305.99;1601822;88;21127;-86
2021/08/17 04:22:15;;;;;;;19.42;13.08;;;;;;;22.37;64.81;99308.52;1588176;90;21103;-84
2021/08/17 04:24:43;;;;;;;22.27;14.33;;;;;;;22.43;64.64;99304.45;1587930;88;21088;-84
2021/08/17 04:27:10;;;;;;;18.75;14.53;;;;;;;22.45;64.46;99306.26;1587478;90;21129;-83
2021/08/17 04:29:37;;;;;;;17.02;13.18;;;;;;;22.46;64.41;99307.87;1559319;90;21083;-84
2021/08/17 04:32:06;;;;;;;20.45;14.63;;;;;;;22.47;64.33;99312.22;1615182;88;21095;-84
2021/08/17 04:34:32;;;;;;;22.80;14.33;;;;;;;22.42;64.38;99309.69;1594211;88;21501;-84
2021/08/17 04:36:58;;;;;;;19.02;12.65;;;;;;;22.39;64.55;99306.27;1559493;90;21043;-84
2021/08/17 04:39:25;;;;;;;18.95;13.80;;;;;;;22.39;64.68;99307.06;1536373;91;21240;-82
2021/08/17 04:41:51;;;;;;;13.72;12.07;;;;;;;22.43;64.59;99308.55;1586669;90;21006;-83
2021/08/17 04:44:18;;;;;;;17.02;14.73;;;;;;;22.46;64.48;99305.13;1634364;87;21068;-83
2021/08/17 04:46:44;;;;;;;20.32;15.78;;;;;;;22.44;64.52;99310.97;1597148;88;21035;-84
2021/08/17 04:49:10;;;;;;;19.35;13.15;;;;;;;22.42;64.68;99314.60;1559429;90;21075;-83
2021/08/17 04:51:37;;;;;;;21.42;14.98;;;;;;;22.43;64.68;99308.55;1587312;90;21200;-84
2021/08/17 04:54:03;;;;;;;17.48;12.00;;;;;;;22.49;64.69;99316.20;1587244;89;21056;-85
2021/08/17 04:56:31;;;;;;;17.50;13.28;;;;;;;22.55;64.58;99314.06;1587426;88;21192;-85
2021/08/17 04:58:57;;;;;;;16.52;13.93;;;;;;;22.60;64.52;99324.81;1587284;89;21671;-81
2021/08/17 05:01:24;;;;;;;20.30;13.45;;;;;;;22.63;64.50;99319.23;1587984;88;21053;-82
2021/08/17 05:03:50;;;;;;;20.92;14.35;;;;;;;22.68;64.48;99319.83;1587810;90;21939;-81
2021/08/17 05:06:18;;;;;;;22.73;14.03;;;;;;;22.70;64.52;99320.31;1588145;88;21575;-81
2021/08/17 05:08:45;;;;;;;16.32;12.82;;;;;;;22.73;64.43;99316.91;1587337;90;21070;-83
2021/08/17 05:11:13;;;;;;;20.10;15.00;;;;;;;22.79;64.41;99322.95;1559335;90;21123;-87
2021/08/17 05:13:42;;;;;;;16.02;13.62;;;;;;;22.80;64.32;99319.88;1587655;88;21595;-85
2021/08/17 05:16:11;;;;;;;16.15;12.95;;;;;;;22.87;64.32;99325.62;1599944;88;21300;-86
2021/08/17 05:18:39;;;;;;;16.67;13.85;;;;;;;22.91;64.33;99325.16;1621157;88;20988;-87
2021/08/17 05:21:05;;;;;;;20.90;14.07;;;;;;;22.94;64.27;99319.55;1612752;88;21032;-86
2021/08/17 05:23:33;;;;;;;16.62;13.28;;;;;;;22.98;64.31;99321.27;1615868;88;21066;-86
2021/08/17 05:26:01;;;;;;;16.42;12.30;;;;;;;23.03;64.23;99326.54;1588488;88;21088;-88
2021/08/17 05:28:27;;;;;;;20.92;14.43;;;;;;;23.07;64.24;99332.14;1587302;89;21473;-87
2021/08/17 05:30:56;;;;;;;18.55;13.85;;;;;;;23.14;64.10;99328.84;1587150;90;21163;-82
2021/08/17 05:33:22;;;;;;;19.07;14.07;;;;;;;23.21;63.99;99327.14;1587817;89;21029;-81
2021/08/17 05:35:50;;;;;;;18.05;13.28;;;;;;;23.30;63.76;99325.66;1560167;90;21599;-81
2021/08/17 05:38:16;;;;;;;17.65;11.57;;;;;;;23.39;63.66;99320.85;1588834;90;21058;-85
2021/08/17 05:40:42;;;;;;;16.42;12.90;;;;;;;23.47;63.44;99321.33;1589276;90;21099;-86
2021/08/17 05:43:09;;;;;;;20.45;12.18;;;;;;;23.60;63.05;99326.22;1589223;88;21818;-84
2021/08/17 05:45:39;;;;;;;21.48;13.85;;;;;;;23.71;62.76;99330.91;1593004;88;21110;-86
2021/08/17 05:48:09;;;;;;;22.98;13.15;;;;;;;23.83;62.34;99328.16;1573552;88;21597;-82
2021/08/17 05:50:35;;;;;;;17.57;12.25;;;;;;;23.95;62.10;99325.14;1621256;88;21101;-82
2021/08/17 05:53:03;;;;;;;18.98;12.70;;;;;;;24.05;61.53;99337.83;1621022;88;21062;-83
2021/08/17 05:55:31;;;;;;;20.50;12.30;;;;;;;24.16;61.22;99329.36;1592137;88;21080;-84
2021/08/17 05:58:00;;;;;;;17.17;10.60;;;;;;;24.27;60.65;99332.39;1559304;90;21042;-84
2021/08/17 06:00:29;;;;;;;21.10;12.75;;;;;;;24.39;60.48;99332.93;1587249;90;21054;-82
2021/08/17 06:02:55;;;;;;;16.23;11.35;;;;;;;24.50;60.33;99323.04;1587142;89;21027;-84
2021/08/17 06:05:22;;;;;;;18.17;10.93;;;;;;;24.60;60.09;99328.03;1592282;89;21100;-82
2021/08/17 06:07:50;;;;;;;15.43;11.03;;;;;;;24.72;59.43;99326.00;1614460;87;21590;-84
2021/08/17 06:10:17;;;;;;;11.90;10.20;;;;;;;24.85;59.17;99323.17;1588633;89;21330;-81
2021/08/17 06:12:45;;;;;;;17.20;10.28;;;;;;;24.98;57.38;99321.98;1588097;88;21079;-81
2021/08/17 06:15:12;;;;;;;25.62;10.53;;;;;;;25.11;56.77;99330.37;1587248;89;21548;-83
2021/08/17 06:17:40;;;;;;;14.95;10.30;;;;;;;25.25;55.62;99329.34;1587810;88;21202;-84
2021/08/17 06:20:10;;;;;;;19.60;9.38;;;;;;;25.38;55.17;99320.41;1601970;88;21598;-84
2021/08/17 06:22:37;;;;;;;17.00;10.25;;;;;;;25.50;54.32;99331.33;1641379;87;21051;-84
2021/08/17 06:25:07;;;;;;;17.50;10.15;;;;;;;25.60;54.09;99329.44;1625841;87;20985;-83
2021/08/17 06:27:36;;;;;;;14.15;10.00;;;;;;;25.70;53.96;99323.37;1601041;89;20985;-84
2021/08/17 06:30:05;;;;;;;13.68;9.03;;;;;;;25.79;53.58;99327.30;1620788;87;21142;-83
2021/08/17 06:32:34;;;;;;;20.88;11.15;;;;;;;25.86;53.18;99317.22;1653077;86;20971;-84
2021/08/17 06:35:00;;;;;;;15.43;10.00;;;;;;;25.93;53.14;99324.86;1635274;87;21054;-82
2021/08/17 06:37:30;;;;;;;16.70;12.07;;;;;;;26.00;52.79;99324.42;1635016;87;21524;-85
2021/08/17 06:39:57;;;;;;;14.80;9.18;;;;;;;26.09;52.75;99324.20;1636980;87;21064;-83
2021/08/17 06:42:24;;;;;;;25.32;10.50;;;;;;;26.16;52.41;99317.47;1615651;87;21570;-83
2021/08/17 06:44:50;;;;;;;24.35;10.23;;;;;;;26.23;52.23;99310.77;1621690;87;21009;-82
2021/08/17 06:47:19;;;;;;;16.30;9.28;;;;;;;26.31;51.61;99317.20;1575266;90;21625;-85
2021/08/17 06:49:45;;;;;;;15.30;9.73;;;;;;;26.39;51.33;99315.60;1605717;87;20957;-85
2021/08/17 06:52:14;;;;;;;16.75;9.85;;;;;;;26.47;50.91;99317.33;1643571;87;21459;-84
2021/08/17 06:54:41;;;;;;;20.80;9.65;;;;;;;26.57;50.94;99313.78;1642354;87;21208;-84
2021/08/17 06:57:10;;;;;;;23.20;10.60;;;;;;;26.65;51.20;99319.06;1615485;87;21044;-83
2021/08/17 06:59:37;;;;;;;13.80;9.28;;;;;;;26.73;51.87;99315.27;1614324;87;21060;-83
2021/08/17 07:02:05;;;;;;;15.48;10.63;;;;;;;26.83;51.97;99316.63;1559154;90;21024;-86
2021/08/17 07:04:32;;;;;;;19.50;10.15;;;;;;;26.91;51.98;99314.22;1563724;90;20976;-86
2021/08/17 07:07:00;;;;;;;13.95;10.00;;;;;;;27.00;51.46;99326.42;1602262;86;21089;-84
2021/08/17 07:09:33;;;;;;;16.80;9.65;;;;;;;27.08;50.52;99317.89;1599605;87;20990;-84
2021/08/17 07:11:59;;;;;;;16.65;10.93;;;;;;;27.14;50.56;99304.00;1571039;90;21023;-87
2021/08/17 07:14:25;;;;;;;21.27;11.93;;;;;;;27.21;50.23;99308.82;1615208;88;20984;-84
2021/08/17 07:16:51;;;;;;;18.70;10.65;;;;;;;27.26;50.20;99306.55;1602535;89;21205;-82
2021/08/17 07:19:19;;;;;;;13.93;10.05;;;;;;;27.32;49.81;99309.22;1587348;86;21186;-82
2021/08/17 07:21:47;;;;;;;15.35;10.82;;;;;;;27.40;49.82;99309.31;1547553;89;21003;-87
2021/08/17 07:24:13;;;;;;;13.18;9.80;;;;;;;27.49;49.38;99305.73;1547399;89;20927;-85
2021/08/17 07:26:54;;;;;;;14.33;9.88;;;;;;;27.56;48.79;99301.70;1548837;88;21070;-87
2021/08/17 07:29:28;;;;;;;17.90;9.65;;;;;;;27.64;48.80;99300.05;1604613;89;20982;-84
2021/08/17 07:31:55;;;;;;;17.15;9.40;;;;;;;27.75;48.39;99302.38;1593473;88;21067;-83
2021/08/17 07:34:22;;;;;;;19.82;9.35;;;;;;;27.86;48.09;99301.16;1608419;88;21094;-82
2021/08/17 07:36:48;;;;;;;26.70;8.28;;;;;;;27.97;47.34;99308.98;1585001;89;21043;-84
2021/08/17 07:39:15;;;;;;;11.40;7.90;;;;;;;28.09;46.23;99302.43;1591411;88;21099;-82
2021/08/17 07:41:41;;;;;;;14.78;7.72;;;;;;;28.19;45.79;99305.95;1592402;90;21588;-79
2021/08/17 07:44:08;;;;;;;12.95;7.20;;;;;;;28.29;44.90;99304.48;1619420;88;21164;-81
2021/08/17 07:46:34;;;;;;;13.90;8.85;;;;;;;28.34;44.83;99303.56;1592552;88;21099;-80
2021/08/17 07:49:01;;;;;;;22.67;8.55;;;;;;;28.41;45.21;99313.31;1591627;88;21082;-83
2021/08/17 07:51:28;;;;;;;18.70;7.75;;;;;;;28.48;44.58;99321.70;1601438;89;21098;-79
2021/08/17 07:53:54;;;;;;;26.97;8.78;;;;;;;28.52;43.90;99308.70;1591155;88;21126;-83
2021/08/17 07:56:21;;;;;;;25.27;8.75;;;;;;;28.56;43.68;99307.35;1609598;89;21047;-85
2021/08/17 07:58:49;;;;;;;19.12;7.95;;;;;;;28.58;43.77;99314.70;1585256;90;21070;-84
2021/08/17 08:01:15;;;;;;;20.55;9.80;;;;;;;28.65;43.85;99305.66;1592884;88;20999;-85
2021/08/17 08:03:42;;;;;;;20.70;8.70;;;;;;;28.78;43.64;99316.10;1613135;87;21103;-86
2021/08/17 08:06:09;;;;;;;12.55;7.83;;;;;;;28.89;43.04;99309.29;1615326;88;21065;-84
2021/08/17 08:08:39;;;;;;;11.93;7.33;;;;;;;29.00;42.73;99317.12;1615575;89;21073;-80
2021/08/17 08:11:09;;;;;;;15.98;9.08;;;;;;;29.04;42.98;99306.86;1618029;87;20976;-84
2021/08/17 08:13:36;;;;;;;33.78;8.90;;;;;;;29.11;42.67;99301.98;1626559;87;21131;-84
2021/08/17 08:16:04;;;;;;;33.25;10.38;;;;;;;29.18;42.79;99308.36;1609396;89;21459;-87
2021/08/17 08:18:30;;;;;;;18.05;7.65;;;;;;;29.27;42.31;99308.03;1610075;88;21043;-82
2021/08/17 08:20:57;;;;;;;18.95;7.80;;;;;;;29.32;41.86;99300.78;1612635;85;21124;-84
2021/08/17 08:23:24;;;;;;;12.28;8.63;;;;;;;29.31;41.71;99307.49;1616358;86;21114;-85
2021/08/17 08:25:50;;;;;;;44.77;9.20;;;;;;;29.32;41.71;99304.34;1587988;86;20958;-84
2021/08/17 08:28:17;;;;;;;18.57;9.28;;;;;;;29.33;41.38;99294.06;1616649;85;20911;-84
2021/08/17 08:30:47;;;;;;;15.13;8.13;;;;;;;29.34;41.43;99287.34;1597839;85;20997;-89
2021/08/17 08:33:15;;;;;;;19.15;8.20;;;;;;;29.34;41.66;99297.84;1640002;84;21016;-85
2021/08/17 08:35:45;;;;;;;14.43;6.70;;;;;;;29.40;41.66;99304.59;1617139;85;20953;-84
2021/08/17 08:38:12;;;;;;;24.87;9.90;;;;;;;29.45;41.81;99300.08;1617847;87;21097;-84
2021/08/17 08:40:39;;;;;;;15.58;7.80;;;;;;;29.52;41.71;99301.31;1630120;87;21049;-85
2021/08/17 08:43:07;;;;;;;20.85;8.55;;;;;;;29.61;41.27;99308.70;1617104;89;20909;-86
2021/08/17 08:45:39;;;;;;;15.70;7.62;;;;;;;29.68;40.96;99305.40;1616811;89;20945;-85
2021/08/17 08:48:08;;;;;;;18.77;8.48;;;;;;;29.75;41.26;99290.77;1616391;89;20965;-83
2021/08/17 08:50:36;;;;;;;20.35;7.67;;;;;;;29.81;41.48;99283.67;1616988;87;21092;-84
2021/08/17 08:53:03;;;;;;;14.60;9.35;;;;;;;29.86;40.90;99292.42;1587379;89;21034;-84
2021/08/17 08:55:31;;;;;;;20.62;9.23;;;;;;;29.91;40.81;99278.01;1616560;89;21004;-84
2021/08/17 08:58:00;;;;;;;18.90;8.38;;;;;;;29.97;40.55;99283.39;1615494;89;21404;-82
2021/08/17 09:00:27;;;;;;;14.13;6.53;;;;;;;30.04;40.63;99288.95;1616307;87;21005;-82
2021/08/17 09:02:53;;;;;;;19.05;8.13;;;;;;;30.11;40.45;99280.09;1588172;88;21017;-82
2021/08/17 09:05:22;;;;;;;14.13;7.75;;;;;;;30.21;40.77;99280.72;1615906;88;21038;-82
2021/08/17 09:07:50;;;;;;;20.45;9.08;;;;;;;30.35;40.30;99284.72;1596269;87;21018;-83
2021/08/17 09:10:23;;;;;;;25.20;8.25;;;;;;;30.43;40.14;99283.55;1617694;89;21459;-82
2021/08/17 09:12:53;;;;;;;17.30;9.05;;;;;;;30.49;40.06;99275.08;1626841;87;20983;-82
2021/08/17 09:15:33;;;;;;;22.20;8.80;;;;;;;30.55;40.02;99279.06;1649174;87;21028;-82
2021/08/17 09:18:10;;;;;;;15.83;7.53;;;;;;;30.67;39.92;99273.12;1617894;87;21019;-81
2021/08/17 09:20:43;;;;;;;12.43;7.25;;;;;;;30.66;39.51;99266.77;1617253;88;20934;-82
2021/08/17 09:23:33;;;;;;;14.95;8.33;;;;;;;30.70;39.49;99292.55;1616665;87;20994;-80
2021/08/17 09:26:03;;;;;;;12.33;7.47;;;;;;;30.71;39.57;99279.47;1596677;88;21585;-82
2021/08/17 09:28:34;;;;;;;14.43;8.15;;;;;;;30.77;39.10;99268.17;1616612;87;20999;-84
2021/08/17 09:31:04;;;;;;;18.92;7.87;;;;;;;30.84;38.47;99267.40;1618935;87;21030;-83
2021/08/17 09:33:38;;;;;;;26.97;7.97;;;;;;;30.89;38.39;99271.17;1620697;86;20979;-78
2021/08/17 09:36:08;;;;;;;15.30;6.97;;;;;;;30.89;38.11;99271.17;1656196;86;20979;-81
2021/08/17 09:38:35;;;;;;;14.07;8.53;;;;;;;30.92;38.42;99282.28;1628849;86;21007;-84
2021/08/17 09:41:19;;;;;;;13.75;7.90;;;;;;;30.99;38.41;99278.09;1599095;88;21027;-83
2021/08/17 09:44:02;;;;;;;17.65;7.45;;;;;;;31.02;38.20;99273.19;1566174;89;21019;-81
2021/08/17 09:46:35;;;;;;;11.10;6.72;;;;;;;31.09;38.13;99275.95;1596271;87;21039;-83
2021/08/17 09:49:26;;;;;;;17.40;7.87;;;;;;;31.20;37.81;99276.55;1630992;87;22508;-72
2021/08/17 09:51:54;;;;;;;23.10;7.35;;;;;;;31.23;37.62;99266.01;1595381;88;21080;-77
2021/08/17 09:54:27;;;;;;;15.38;8.28;;;;;;;31.31;37.83;99256.48;1614145;88;21461;-75
2021/08/17 09:56:57;;;;;;;13.80;8.10;;;;;;;31.35;37.42;99263.63;1585784;89;21009;-76
2021/08/17 09:59:26;;;;;;;29.00;9.83;;;;;;;31.36;37.59;99261.05;1613977;88;21509;-78
2021/08/17 10:01:54;;;;;;;13.15;6.80;;;;;;;31.40;37.81;99260.45;1614158;88;21363;-77
2021/08/17 10:04:22;;;;;;;45.55;9.30;;;;;;;31.49;37.57;99262.81;1631799;86;21057;-69
2021/08/17 10:06:57;;;;;;;18.70;7.58;;;;;;;31.57;37.40;99260.23;1609239;89;21084;-72
2021/08/17 10:09:24;;;;;;;18.75;8.50;;;;;;;31.67;36.91;99264.17;1613566;89;21547;-74
2021/08/17 10:11:50;;;;;;;10.88;6.75;;;;;;;31.70;36.91;99256.44;1613199;87;21030;-72
2021/08/17 10:14:19;;;;;;;12.18;7.35;;;;;;;31.74;36.78;99261.39;1645470;87;21011;-73
2021/08/17 10:16:46;;;;;;;14.95;7.30;;;;;;;31.74;36.93;99263.58;1613774;86;21290;-74
2021/08/17 10:19:21;;;;;;;12.50;7.75;;;;;;;31.75;36.89;99272.09;1613170;87;21025;-75
2021/08/17 10:21:50;;;;;;;15.35;7.25;;;;;;;31.82;36.89;99269.30;1613806;88;21079;-74
2021/08/17 10:24:40;;;;;;;14.03;6.87;;;;;;;31.84;36.57;99264.14;1614761;88;21515;-74
2021/08/17 10:27:18;;;;;;;14.75;7.15;;;;;;;31.84;36.87;99270.30;1586085;89;21008;-76
2021/08/17 10:30:01;;;;;;;11.50;6.55;;;;;;;31.86;36.96;99269.28;1615201;87;21024;-72
2021/08/17 10:32:49;;;;;;;;;;;;;;;31.84;36.80;99278.05;1650537;86;21012;-70
2021/08/17 10:35:50;;;;;;;21.82;8.25;;;;;;;31.87;36.96;99280.02;1646793;87;20976;-72
2021/08/17 10:38:23;;;;;;;9.78;6.22;;;;;;;31.98;36.94;99289.12;1667416;85;21063;-73
2021/08/17 10:40:55;;;;;;;14.95;7.12;;;;;;;31.99;36.85;99283.73;1593713;88;21111;-74
2021/08/17 10:43:37;;;;;;;11.90;8.15;;;;;;;31.99;36.86;99291.31;1613860;89;21548;-72
2021/08/17 10:46:09;;;;;;;14.87;6.15;;;;;;;31.97;37.16;99296.47;1614197;87;21613;-80
2021/08/17 10:48:51;;;;;;;16.82;7.42;;;;;;;32.08;36.51;99283.33;1628693;87;21028;-77
2021/08/17 10:51:32;;;;;;;12.82;6.42;;;;;;;32.11;35.84;99282.53;1620159;87;21571;-78
2021/08/17 10:54:10;;;;;;;7.03;6.12;;;;;;;32.14;35.59;99273.96;1648037;87;21177;-79
2021/08/17 10:56:38;;;;;;;13.75;7.58;;;;;;;32.26;35.82;99290.22;1619111;87;21052;-77
2021/08/17 10:59:05;;;;;;;10.10;6.47;;;;;;;32.41;35.81;99286.97;1613877;88;20985;-80
2021/08/17 11:01:46;;;;;;;11.80;7.33;;;;;;;32.55;35.41;99276.94;1613940;89;21049;-77
2021/08/17 11:04:18;;;;;;;8.73;5.95;;;;;;;32.70;34.39;99279.27;1617899;88;21200;-75
2021/08/17 11:06:51;;;;;;;13.08;6.53;;;;;;;32.75;33.49;99273.26;1632774;86;22222;-75
2021/08/17 11:09:28;;;;;;;15.65;7.20;;;;;;;32.76;33.97;99269.84;1610172;87;21588;-80
2021/08/17 11:12:10;;;;;;;13.45;6.85;;;;;;;32.77;34.23;99271.44;1609794;87;21044;-77
2021/08/17 11:14:39;;;;;;;9.50;6.30;;;;;;;32.82;33.66;99262.05;1595513;87;21202;-79
2021/08/17 11:17:16;;;;;;;10.15;7.05;;;;;;;32.90;33.35;99271.16;1593278;89;21031;-76
2021/08/17 11:19:49;;;;;;;8.85;5.92;;;;;;;32.83;33.47;99258.06;1606107;87;21118;-76
2021/08/17 11:22:34;;;;;;;11.30;6.85;;;;;;;32.79;33.90;99258.70;1606221;87;20949;-76
2021/08/17 11:25:00;;;;;;;17.37;7.15;;;;;;;32.82;33.68;99259.86;1606378;87;21096;-70
2021/08/17 11:27:35;;;;;;;9.60;6.20;;;;;;;32.79;33.76;99267.66;1595624;89;21569;-72
2021/08/17 11:30:11;;;;;;;14.40;6.80;;;;;;;32.78;33.83;99259.89;1609912;88;21025;-72